Time;durP1;ratioP1;P1;durP2;ratioP2;P2;SDS_P1;SDS_P2;PMS_P1;PMS_P2;Temp;Humidity;BMP_temperature;BMP_pressure;BME280_temperature;BME280_humidity;BME280_pressure;Samples;Min_cycle;Max_cycle;Signal;HPM_P1;HPM_P2
2021/09/11 02:46:30;;;;;;;11.77;6.97;;;12.60;91.40;;;;;;5289581;24;20353;-84
2021/09/11 02:48:59;;;;;;;15.77;7.43;;;12.60;91.40;;;;;;4857690;29;20074;-84
2021/09/11 02:51:26;;;;;;;11.93;7.18;;;12.60;91.60;;;;;;4827137;29;20090;-84
2021/09/11 02:53:52;;;;;;;10.88;7.35;;;12.50;91.60;;;;;;4827516;29;20057;-84
2021/09/11 02:56:17;;;;;;;9.88;7.00;;;12.50;91.60;;;;;;4827572;29;20329;-84
2021/09/11 02:58:43;;;;;;;11.73;6.97;;;12.50;91.80;;;;;;4827462;29;20078;-84
2021/09/11 03:01:09;;;;;;;12.85;7.78;;;12.50;91.70;;;;;;4826789;29;20101;-84
2021/09/11 03:03:36;;;;;;;14.60;7.72;;;12.50;91.40;;;;;;4827801;29;20021;-84
2021/09/11 03:06:01;;;;;;;13.25;6.43;;;12.50;91.30;;;;;;4842970;29;20032;-84
2021/09/11 03:08:27;;;;;;;10.82;6.80;;;12.50;91.30;;;;;;4857973;29;20337;-84
2021/09/11 03:10:53;;;;;;;12.63;7.07;;;12.50;91.20;;;;;;4827305;29;20381;-84
2021/09/11 03:13:19;;;;;;;13.63;7.80;;;12.50;91.10;;;;;;4842577;29;20203;-84
2021/09/11 03:15:44;;;;;;;15.23;7.63;;;12.50;91.00;;;;;;4830830;29;20021;-84
2021/09/11 03:18:10;;;;;;;11.80;7.60;;;12.50;91.00;;;;;;4845057;29;20356;-84
2021/09/11 03:20:36;;;;;;;28.48;7.43;;;12.40;91.20;;;;;;4844762;29;20096;-84
2021/09/11 03:23:04;;;;;;;15.68;7.45;;;12.40;91.30;;;;;;4860235;29;20030;-84
2021/09/11 03:25:29;;;;;;;;;;;12.40;91.10;;;;;;4877888;29;20093;-84
2021/09/11 03:27:56;;;;;;;11.60;6.90;;;12.40;91.80;;;;;;4845400;29;19939;-84
2021/09/11 03:30:22;;;;;;;14.05;6.65;;;12.40;91.40;;;;;;4844575;29;20034;-85
2021/09/11 03:32:48;;;;;;;10.85;7.32;;;12.30;91.30;;;;;;4860215;29;20041;-84
2021/09/11 03:35:14;;;;;;;17.67;7.85;;;12.30;91.50;;;;;;4860505;29;20040;-84
2021/09/11 03:37:39;;;;;;;17.30;7.43;;;12.30;91.80;;;;;;4844857;29;20034;-84
2021/09/11 03:40:06;;;;;;;14.48;7.75;;;12.30;91.80;;;;;;4844943;29;20041;-84
2021/09/11 03:42:32;;;;;;;13.52;7.97;;;12.30;91.70;;;;;;4860618;29;20086;-84
2021/09/11 03:44:57;;;;;;;14.20;7.88;;;12.30;91.70;;;;;;4845161;29;20025;-84
2021/09/11 03:47:23;;;;;;;12.90;7.50;;;12.30;91.90;;;;;;4855488;29;20082;-84
2021/09/11 03:49:49;;;;;;;15.43;7.35;;;12.20;91.70;;;;;;4858386;29;20073;-84
2021/09/11 03:52:15;;;;;;;14.95;7.43;;;12.20;91.70;;;;;;4856890;29;20030;-83
2021/09/11 03:54:40;;;;;;;12.10;7.38;;;12.20;91.80;;;;;;4857237;29;20344;-84
2021/09/11 03:57:06;;;;;;;18.80;7.65;;;12.20;91.90;;;;;;4856934;29;20021;-84
2021/09/11 03:59:32;;;;;;;14.55;7.72;;;12.20;91.80;;;;;;4857765;29;20026;-84
2021/09/11 04:01:58;;;;;;;11.80;7.20;;;12.20;91.90;;;;;;4856599;29;20034;-84
2021/09/11 04:04:23;;;;;;;14.07;8.50;;;12.20;92.00;;;;;;4857149;29;20040;-84
2021/09/11 04:06:49;;;;;;;17.52;6.80;;;12.10;92.20;;;;;;4857371;29;20029;-84
2021/09/11 04:09:15;;;;;;;11.35;6.53;;;12.10;92.40;;;;;;4856979;29;20332;-84
2021/09/11 04:11:41;;;;;;;11.13;7.18;;;12.00;92.40;;;;;;4857172;29;20094;-84
2021/09/11 04:14:07;;;;;;;11.35;7.40;;;12.00;92.40;;;;;;4856940;29;20030;-84
2021/09/11 04:16:32;;;;;;;13.93;8.55;;;12.10;92.50;;;;;;4841642;29;20061;-84
2021/09/11 04:18:58;;;;;;;14.63;7.90;;;12.10;92.60;;;;;;4856927;29;20030;-84
2021/09/11 04:21:24;;;;;;;17.17;7.20;;;12.00;92.60;;;;;;4856819;29;20038;-84
2021/09/11 04:23:49;;;;;;;10.90;7.32;;;12.00;92.60;;;;;;4856697;29;20286;-84
2021/09/11 04:26:15;;;;;;;10.13;7.53;;;12.00;92.70;;;;;;4857042;29;20065;-85
2021/09/11 04:28:41;;;;;;;22.20;8.98;;;12.10;92.90;;;;;;4856663;29;20034;-84
2021/09/11 04:31:07;;;;;;;13.95;7.43;;;12.00;92.70;;;;;;4871779;29;20037;-84
2021/09/11 04:33:32;;;;;;;12.73;7.18;;;12.00;92.90;;;;;;4856633;29;20034;-84
2021/09/11 04:35:58;;;;;;;12.25;7.05;;;12.10;92.80;;;;;;4856598;29;20030;-84
2021/09/11 04:38:24;;;;;;;14.63;9.05;;;12.10;92.90;;;;;;4856909;29;20042;-84
2021/09/11 04:40:50;;;;;;;12.73;6.65;;;12.10;93.20;;;;;;4856756;29;20030;-84
2021/09/11 04:43:16;;;;;;;12.52;7.15;;;12.10;93.40;;;;;;4871708;29;20056;-84
2021/09/11 04:45:44;;;;;;;10.90;6.95;;;12.10;93.40;;;;;;4856335;29;20061;-84
2021/09/11 04:48:10;;;;;;;14.98;7.63;;;12.20;93.40;;;;;;4856210;29;20221;-85
2021/09/11 04:50:36;;;;;;;9.55;7.15;;;12.20;93.50;;;;;;4856055;29;20044;-85
2021/09/11 04:53:02;;;;;;;11.77;7.18;;;12.20;93.40;;;;;;4856095;29;20030;-85
2021/09/11 04:55:27;;;;;;;12.02;7.43;;;12.20;93.30;;;;;;4856088;29;20037;-85
2021/09/11 04:57:53;;;;;;;13.32;8.90;;;12.30;93.30;;;;;;4840838;29;20033;-85
2021/09/11 05:00:19;;;;;;;12.52;9.20;;;12.30;93.50;;;;;;4855473;29;20037;-85
2021/09/11 05:02:45;;;;;;;12.07;7.88;;;12.40;93.60;;;;;;4855908;29;20030;-85
2021/09/11 05:05:11;;;;;;;10.93;7.88;;;12.50;94.00;;;;;;4856431;29;20044;-85
2021/09/11 05:07:37;;;;;;;16.77;7.85;;;12.50;93.70;;;;;;4856188;29;20030;-85
2021/09/11 05:10:04;;;;;;;17.52;7.53;;;12.60;94.00;;;;;;4857830;29;20077;-85
2021/09/11 05:12:30;;;;;;;15.23;6.93;;;12.70;95.10;;;;;;4864684;29;20030;-85
2021/09/11 05:14:56;;;;;;;8.70;6.63;;;13.00;95.20;;;;;;4866086;29;20025;-85
2021/09/11 05:17:22;;;;;;;14.90;7.50;;;13.20;95.10;;;;;;4855801;29;20318;-85
2021/09/11 05:19:47;;;;;;;10.77;6.25;;;13.40;94.60;;;;;;4869857;29;20017;-85
2021/09/11 05:22:13;;;;;;;14.45;7.13;;;13.60;94.50;;;;;;4874459;29;20037;-84
2021/09/11 05:24:39;;;;;;;17.20;6.97;;;13.70;94.30;;;;;;4874820;29;20102;-85
2021/09/11 05:27:05;;;;;;;13.25;6.32;;;13.80;94.10;;;;;;4866405;29;20045;-85
2021/09/11 05:29:31;;;;;;;16.05;7.05;;;14.00;93.70;;;;;;4838241;29;20053;-84
2021/09/11 05:31:56;;;;;;;13.07;6.22;;;14.00;93.50;;;;;;4833222;29;20045;-84
2021/09/11 05:34:22;;;;;;;16.35;7.55;;;14.10;93.50;;;;;;4867563;29;20287;-85
2021/09/11 05:36:50;;;;;;;24.85;7.60;;;14.20;93.20;;;;;;4849924;29;20033;-84
2021/09/11 05:39:16;;;;;;;;;;;14.40;93.10;;;;;;4856788;29;20026;-84
2021/09/11 05:41:42;;;;;;;11.05;6.80;;;14.40;93.10;;;;;;4871233;29;20069;-84
2021/09/11 05:44:08;;;;;;;28.73;9.15;;;14.50;92.70;;;;;;4869246;29;20106;-84
2021/09/11 05:46:34;;;;;;;15.35;7.43;;;14.60;92.80;;;;;;4865598;29;20083;-84
2021/09/11 05:49:00;;;;;;;14.18;7.60;;;14.70;92.40;;;;;;4868551;29;20217;-85
2021/09/11 05:51:25;;;;;;;15.50;8.45;;;14.80;92.10;;;;;;4858688;29;20030;-84
2021/09/11 05:53:51;;;;;;;18.23;7.75;;;14.80;92.30;;;;;;4860391;29;20041;-84
2021/09/11 05:56:17;;;;;;;11.77;8.30;;;14.90;91.90;;;;;;4869825;29;20081;-84
2021/09/11 05:58:43;;;;;;;14.82;7.57;;;15.10;91.80;;;;;;4858983;29;20022;-84
2021/09/11 06:01:09;;;;;;;17.30;8.93;;;15.10;91.80;;;;;;4862220;29;20049;-82
2021/09/11 06:03:34;;;;;;;13.13;8.40;;;15.30;91.70;;;;;;4857908;29;20026;-84
2021/09/11 06:06:00;;;;;;;12.20;8.15;;;15.40;91.50;;;;;;4863998;29;20041;-84
2021/09/11 06:08:26;;;;;;;21.58;7.85;;;15.50;91.50;;;;;;4870258;29;20034;-82
2021/09/11 06:10:52;;;;;;;20.10;8.27;;;15.60;91.10;;;;;;4862987;29;20022;-84
2021/09/11 06:13:18;;;;;;;17.48;8.00;;;15.70;91.00;;;;;;4876877;29;20056;-84
2021/09/11 06:15:44;;;;;;;12.80;8.05;;;15.90;90.90;;;;;;4870180;29;20034;-84
2021/09/11 06:18:10;;;;;;;16.27;8.13;;;16.00;90.40;;;;;;4881505;29;20030;-81
2021/09/11 06:20:36;;;;;;;20.02;8.25;;;16.10;90.30;;;;;;4868826;29;20061;-82
2021/09/11 06:23:01;;;;;;;14.88;7.78;;;16.30;89.50;;;;;;4867106;29;20034;-84
2021/09/11 06:25:27;;;;;;;16.77;7.90;;;16.40;89.30;;;;;;4861451;29;20030;-83
2021/09/11 06:27:57;;;;;;;12.98;7.43;;;16.50;89.10;;;;;;4870747;29;20045;-82
2021/09/11 06:30:23;;;;;;;11.50;7.93;;;16.50;88.50;;;;;;4867320;29;20063;-82
2021/09/11 06:32:50;;;;;;;15.10;7.85;;;16.60;88.30;;;;;;4862379;29;20317;-82
2021/09/11 06:35:16;;;;;;;12.35;8.32;;;16.80;87.60;;;;;;4857691;29;20069;-82
2021/09/11 06:37:42;;;;;;;16.73;8.18;;;16.90;86.80;;;;;;4847796;29;20225;-82
2021/09/11 06:40:08;;;;;;;12.68;8.00;;;17.10;86.30;;;;;;4871405;29;20057;-82
2021/09/11 06:42:33;;;;;;;13.45;7.65;;;17.20;86.10;;;;;;4870542;29;20034;-83
2021/09/11 06:45:00;;;;;;;17.48;7.97;;;17.30;85.80;;;;;;4859746;29;20262;-83
2021/09/11 06:47:26;;;;;;;12.50;7.22;;;17.50;85.10;;;;;;4869849;29;20081;-83
2021/09/11 06:49:52;;;;;;;15.40;7.90;;;17.60;84.40;;;;;;4862604;29;20063;-83
2021/09/11 06:52:20;;;;;;;12.70;7.38;;;17.70;84.20;;;;;;4869866;29;20034;-83
2021/09/11 06:54:47;;;;;;;14.32;7.75;;;17.90;83.40;;;;;;4846264;29;20034;-83
2021/09/11 06:57:13;;;;;;;16.77;7.80;;;18.00;82.60;;;;;;4837629;29;20035;-83
2021/09/11 06:59:39;;;;;;;25.25;6.65;;;18.10;81.90;;;;;;4859133;29;20033;-83
2021/09/11 07:02:04;;;;;;;13.00;7.30;;;18.30;81.40;;;;;;4859539;29;20282;-83
2021/09/11 07:04:30;;;;;;;19.70;7.65;;;18.40;81.00;;;;;;4859166;29;20033;-83
2021/09/11 07:06:56;;;;;;;16.52;7.28;;;18.50;80.50;;;;;;4874876;29;20033;-83
2021/09/11 07:09:22;;;;;;;12.13;6.38;;;18.60;79.90;;;;;;4874755;29;20096;-80
2021/09/11 07:11:47;;;;;;;15.13;7.78;;;18.80;79.00;;;;;;4875624;29;20274;-79
2021/09/11 07:14:15;;;;;;;12.68;6.43;;;18.80;78.50;;;;;;4859656;29;20333;-81
2021/09/11 07:16:43;;;;;;;11.18;5.65;;;19.00;78.40;;;;;;4862887;29;20030;-81
2021/09/11 07:19:08;;;;;;;13.80;6.10;;;19.00;77.80;;;;;;4856027;29;20026;-81
2021/09/11 07:21:34;;;;;;;17.38;6.97;;;19.20;77.20;;;;;;4855487;29;20041;-81
2021/09/11 07:24:00;;;;;;;16.63;6.65;;;19.30;76.10;;;;;;4854766;29;20049;-81
2021/09/11 07:26:25;;;;;;;18.65;6.35;;;19.50;75.70;;;;;;4854802;29;20129;-81
2021/09/11 07:28:51;;;;;;;17.30;6.57;;;19.60;75.30;;;;;;4870490;29;20071;-81
2021/09/11 07:31:18;;;;;;;12.82;6.43;;;19.90;74.60;;;;;;4857834;29;20317;-82
2021/09/11 07:33:44;;;;;;;18.03;6.50;;;20.00;73.70;;;;;;4865974;29;20033;-82
2021/09/11 07:36:10;;;;;;;14.32;6.53;;;20.10;73.00;;;;;;4852753;29;20309;-83
2021/09/11 07:38:36;;;;;;;14.25;6.13;;;20.20;71.80;;;;;;4862759;29;20029;-82
2021/09/11 07:41:04;;;;;;;15.88;6.38;;;20.30;71.20;;;;;;4853816;29;20034;-82
2021/09/11 07:43:30;;;;;;;16.88;6.97;;;20.60;70.50;;;;;;4836495;29;20135;-83
2021/09/11 07:45:56;;;;;;;12.73;5.95;;;20.70;70.80;;;;;;4836945;29;20058;-83
2021/09/11 07:48:22;;;;;;;19.00;6.30;;;20.90;70.20;;;;;;4836599;29;20229;-83
2021/09/11 07:50:48;;;;;;;15.77;6.60;;;21.20;70.20;;;;;;4836951;29;20362;-83
2021/09/11 07:53:15;;;;;;;20.73;6.50;;;21.40;69.40;;;;;;4836887;29;20038;-83
2021/09/11 07:55:41;;;;;;;15.80;5.82;;;21.50;70.50;;;;;;4836600;29;20033;-83
2021/09/11 07:58:07;;;;;;;22.67;6.45;;;21.70;68.00;;;;;;4836883;29;20392;-83
2021/09/11 08:00:33;;;;;;;11.88;5.40;;;21.80;67.40;;;;;;4842513;29;20360;-83
2021/09/11 08:02:59;;;;;;;16.73;6.07;;;22.00;67.10;;;;;;4821199;29;20030;-83
2021/09/11 08:05:25;;;;;;;11.55;5.28;;;22.10;66.00;;;;;;4833905;29;20037;-83
2021/09/11 08:07:51;;;;;;;11.73;5.28;;;22.30;65.50;;;;;;4839371;29;20326;-83
2021/09/11 08:10:18;;;;;;;10.87;5.13;;;22.30;64.00;;;;;;4839672;29;20041;-83
2021/09/11 08:12:43;;;;;;;11.70;5.25;;;22.50;63.30;;;;;;4839924;29;20108;-83
2021/09/11 08:15:10;;;;;;;11.23;5.15;;;22.70;62.90;;;;;;4842100;29;20041;-83
2021/09/11 08:17:36;;;;;;;13.05;4.75;;;22.90;62.30;;;;;;4822191;29;20030;-83
2021/09/11 08:20:03;;;;;;;8.40;4.40;;;23.00;60.30;;;;;;4837233;29;20030;-83
2021/09/11 08:22:29;;;;;;;12.13;4.50;;;23.20;60.40;;;;;;4852035;29;20035;-83
2021/09/11 08:24:56;;;;;;;11.98;5.13;;;23.30;59.60;;;;;;4837053;29;20442;-82
2021/09/11 08:27:23;;;;;;;11.45;5.50;;;23.50;60.70;;;;;;4852034;29;20046;-83
2021/09/11 08:29:49;;;;;;;9.13;4.72;;;23.70;60.00;;;;;;4856760;29;20103;-83
2021/09/11 08:32:15;;;;;;;13.65;5.85;;;23.80;59.90;;;;;;4855132;29;20048;-83
2021/09/11 08:34:41;;;;;;;16.60;6.07;;;23.80;58.90;;;;;;4838756;29;20053;-83
2021/09/11 08:37:06;;;;;;;13.30;5.30;;;23.90;58.30;;;;;;4852668;29;20259;-83
2021/09/11 08:39:32;;;;;;;11.95;5.57;;;24.00;59.00;;;;;;4839047;29;20030;-83
2021/09/11 08:41:59;;;;;;;12.25;5.60;;;24.20;59.40;;;;;;4834033;29;20325;-83
2021/09/11 08:44:26;;;;;;;;;;;24.40;57.90;;;;;;4826468;29;20041;-83
2021/09/11 08:46:52;;;;;;;;;;;24.40;57.00;;;;;;4852717;29;19925;-83
2021/09/11 08:49:19;;;;;;;19.42;6.43;;;24.40;58.30;;;;;;4857552;29;19916;-83
2021/09/11 08:51:45;;;;;;;14.93;5.82;;;24.50;58.90;;;;;;4847662;29;20074;-83
2021/09/11 08:54:18;;;;;;;12.98;5.50;;;24.80;57.30;;;;;;4868427;29;20104;-83
2021/09/11 08:56:53;;;;;;;19.17;5.82;;;24.90;57.30;;;;;;5092536;27;20812;-81
2021/09/11 08:59:19;;;;;;;10.75;5.78;;;25.10;57.80;;;;;;5073337;28;20032;-81
2021/09/11 09:02:02;;;;;;;17.17;5.70;;;25.20;55.70;;;;;;5063855;28;20020;-81
2021/09/11 09:04:47;;;;;;;17.05;5.75;;;25.10;56.70;;;;;;5073000;28;20079;-81
2021/09/11 09:07:29;;;;;;;8.45;5.68;;;25.10;57.50;;;;;;5072369;28;20047;-81
2021/09/11 09:10:00;;;;;;;14.02;6.40;;;25.30;58.10;;;;;;5066625;28;20050;-81
2021/09/11 09:12:30;;;;;;;16.92;7.00;;;25.50;57.10;;;;;;5073709;28;20080;-81
2021/09/11 09:15:10;;;;;;;14.30;6.32;;;25.50;55.60;;;;;;5068997;28;20341;-81
2021/09/11 09:17:39;;;;;;;11.23;6.15;;;25.50;57.90;;;;;;5064708;28;20033;-81
2021/09/11 09:20:23;;;;;;;15.40;6.32;;;25.60;57.90;;;;;;5031828;28;20313;-80
2021/09/11 09:22:58;;;;;;;19.17;6.47;;;25.80;57.10;;;;;;5048680;28;20029;-80
2021/09/11 09:25:35;;;;;;;15.90;6.18;;;26.10;58.00;;;;;;5048601;28;20320;-81
2021/09/11 09:28:10;;;;;;;13.75;6.20;;;26.20;56.90;;;;;;5048079;28;20031;-80
2021/09/11 09:30:38;;;;;;;11.02;5.90;;;26.30;56.20;;;;;;5046481;28;20352;-80
2021/09/11 09:33:05;;;;;;;9.57;6.65;;;26.40;56.50;;;;;;5046202;28;20025;-80
2021/09/11 09:35:31;;;;;;;11.18;6.50;;;26.40;55.00;;;;;;5045845;28;20039;-80
2021/09/11 09:38:00;;;;;;;13.75;7.57;;;26.40;57.00;;;;;;5046121;28;20028;-80
2021/09/11 09:40:44;;;;;;;15.07;5.80;;;26.50;55.90;;;;;;5046056;28;20104;-80
2021/09/11 09:43:13;;;;;;;14.55;6.18;;;26.60;56.40;;;;;;5045412;28;20201;-80
2021/09/11 09:45:39;;;;;;;18.35;6.70;;;26.60;56.40;;;;;;5052007;28;20028;-80
2021/09/11 09:48:11;;;;;;;13.75;6.35;;;26.70;57.60;;;;;;5103589;28;20027;-80
2021/09/11 09:50:41;;;;;;;18.35;6.85;;;26.80;56.20;;;;;;5086162;28;20231;-80
2021/09/11 09:53:09;;;;;;;12.63;7.38;;;26.90;56.70;;;;;;5103576;28;20035;-79
2021/09/11 09:55:39;;;;;;;17.75;7.10;;;26.90;56.00;;;;;;5085198;28;20049;-80
2021/09/11 09:58:06;;;;;;;13.90;6.82;;;27.00;55.70;;;;;;5068774;28;20040;-79
2021/09/11 10:00:31;;;;;;;15.03;6.40;;;27.10;57.60;;;;;;5084140;28;20537;-80
2021/09/11 10:02:57;;;;;;;8.90;6.30;;;27.20;56.50;;;;;;5080888;28;20044;-79
2021/09/11 10:05:29;;;;;;;22.13;6.72;;;27.40;58.10;;;;;;5029811;28;20029;-79
2021/09/11 10:08:04;;;;;;;10.70;7.30;;;27.50;56.90;;;;;;5033153;28;20037;-80
2021/09/11 10:10:39;;;;;;;11.70;6.13;;;27.50;55.70;;;;;;5031623;28;20040;-79
2021/09/11 10:13:05;;;;;;;15.65;7.15;;;27.50;56.30;;;;;;5065827;28;20084;-80
2021/09/11 10:15:35;;;;;;;11.55;7.07;;;27.70;56.30;;;;;;5036679;28;20340;-79
2021/09/11 10:18:03;;;;;;;15.10;6.25;;;27.90;56.60;;;;;;5036580;28;20028;-79
2021/09/11 10:21:07;;;;;;;17.83;6.85;;;28.00;56.40;;;;;;5052450;28;20434;-79
2021/09/11 10:23:33;;;;;;;18.10;6.65;;;28.10;54.90;;;;;;5053443;28;20194;-82
2021/09/11 10:25:59;;;;;;;10.27;6.30;;;28.00;55.70;;;;;;5053144;28;20044;-79
2021/09/11 10:28:25;;;;;;;15.05;8.90;;;28.00;56.20;;;;;;5035079;28;20204;-80
2021/09/11 10:31:08;;;;;;;12.13;7.47;;;28.00;55.20;;;;;;5052787;28;20024;-79
2021/09/11 10:33:46;;;;;;;14.45;6.65;;;27.90;56.80;;;;;;5036415;28;20071;-79
2021/09/11 10:36:17;;;;;;;12.15;6.45;;;28.10;55.20;;;;;;5052760;28;20155;-79
2021/09/11 10:38:44;;;;;;;12.52;6.80;;;28.30;56.00;;;;;;5034056;28;20286;-79
2021/09/11 10:41:11;;;;;;;11.95;7.13;;;28.40;56.50;;;;;;5071369;28;20219;-79
2021/09/11 10:43:38;;;;;;;18.27;7.13;;;28.40;57.60;;;;;;5050874;28;20039;-79
2021/09/11 10:46:07;;;;;;;13.52;7.05;;;28.40;54.90;;;;;;5082831;28;20040;-79
2021/09/11 10:48:51;;;;;;;9.45;6.40;;;28.60;56.20;;;;;;5064937;28;20082;-79
2021/09/11 10:51:27;;;;;;;9.98;6.95;;;28.70;57.10;;;;;;5055975;28;20320;-79
2021/09/11 10:54:32;;;;;;;10.55;6.57;;;28.80;54.50;;;;;;5082036;28;20025;-79
2021/09/11 10:56:58;;;;;;;14.32;6.30;;;29.00;55.70;;;;;;5053903;28;20036;-80
2021/09/11 10:59:25;;;;;;;13.50;7.25;;;29.20;56.10;;;;;;5072505;28;20035;-80
2021/09/11 11:02:08;;;;;;;9.10;6.55;;;29.40;54.50;;;;;;5048587;28;20045;-80
2021/09/11 11:04:52;;;;;;;11.63;6.53;;;29.40;54.90;;;;;;5081506;28;20048;-80
2021/09/11 11:07:22;;;;;;;11.43;6.75;;;29.40;53.10;;;;;;5040563;28;20037;-80
2021/09/11 11:10:00;;;;;;;13.93;6.80;;;29.30;54.20;;;;;;5069456;28;20043;-80
2021/09/11 11:12:25;;;;;;;15.25;8.30;;;29.40;55.70;;;;;;5065672;28;20095;-80
2021/09/11 11:14:58;;;;;;;8.73;6.23;;;29.50;53.00;;;;;;5055679;28;20025;-79
2021/09/11 11:17:24;;;;;;;14.00;7.10;;;29.30;53.80;;;;;;5049095;28;20024;-80
2021/09/11 11:19:52;;;;;;;15.48;7.43;;;29.30;54.90;;;;;;5064030;28;20021;-78
2021/09/11 11:22:27;;;;;;;8.52;6.78;;;29.30;54.40;;;;;;5069974;28;20336;-78
2021/09/11 11:24:53;;;;;;;8.60;7.40;;;29.30;55.90;;;;;;5041269;28;20108;-78
2021/09/11 11:27:22;;;;;;;9.23;6.30;;;29.40;55.40;;;;;;5085999;28;20032;-78
2021/09/11 11:29:49;;;;;;;10.52;7.25;;;29.40;55.20;;;;;;5051644;28;20197;-77
2021/09/11 11:32:16;;;;;;;8.70;7.05;;;29.60;53.40;;;;;;5084189;28;20031;-77
2021/09/11 11:34:42;;;;;;;10.43;6.32;;;29.70;52.30;;;;;;5084443;28;20024;-77
2021/09/11 11:37:12;;;;;;;7.85;6.72;;;29.60;54.00;;;;;;5037343;28;20041;-77
2021/09/11 11:39:43;;;;;;;10.57;6.80;;;29.80;54.50;;;;;;5034099;28;20021;-77
2021/09/11 11:42:22;;;;;;;14.18;6.90;;;30.00;54.80;;;;;;5026446;28;20026;-77
2021/09/11 11:44:50;;;;;;;12.15;7.30;;;30.00;54.30;;;;;;5026040;28;20037;-77
2021/09/11 11:47:39;;;;;;;9.10;7.00;;;30.00;55.20;;;;;;5042314;28;20032;-77
2021/09/11 11:50:17;;;;;;;9.80;6.95;;;29.90;52.80;;;;;;5060330;28;20017;-77
2021/09/11 11:52:45;;;;;;;10.73;7.13;;;29.80;52.30;;;;;;5036535;28;20100;-76
2021/09/11 11:55:12;;;;;;;12.88;6.70;;;29.80;53.00;;;;;;5033966;28;20122;-77
2021/09/11 11:57:38;;;;;;;12.85;6.63;;;30.00;54.70;;;;;;5044052;28;20029;-77
2021/09/11 12:00:06;;;;;;;10.87;6.13;;;30.10;52.90;;;;;;5030878;28;20079;-78
2021/09/11 12:02:35;;;;;;;10.23;6.85;;;30.20;53.50;;;;;;5042802;28;20022;-77
2021/09/11 12:05:13;;;;;;;12.43;6.75;;;30.20;53.20;;;;;;5045576;28;20028;-77
2021/09/11 12:07:39;;;;;;;10.15;6.80;;;30.00;51.50;;;;;;5036116;28;20037;-77
2021/09/11 12:10:12;;;;;;;6.90;6.00;;;29.90;53.50;;;;;;5063846;28;20196;-77
2021/09/11 12:12:50;;;;;;;12.07;6.93;;;30.00;53.70;;;;;;5042270;28;20029;-78
2021/09/11 12:15:24;;;;;;;13.25;7.55;;;29.90;52.90;;;;;;5045118;28;20308;-78
2021/09/11 12:18:02;;;;;;;9.27;7.15;;;29.70;52.50;;;;;;5062682;28;20017;-77
2021/09/11 12:20:31;;;;;;;11.65;7.10;;;29.60;54.10;;;;;;5045174;28;20335;-77
2021/09/11 12:23:06;;;;;;;8.05;7.05;;;29.50;54.10;;;;;;5045109;28;20103;-77
2021/09/11 12:25:52;;;;;;;10.98;6.07;;;29.60;54.00;;;;;;5037090;28;20029;-77
2021/09/11 12:28:36;;;;;;;;;;;29.90;53.70;;;;;;5040815;28;20255;-78
2021/09/11 12:31:20;;;;;;;9.65;6.05;;;30.00;53.90;;;;;;5043092;28;19905;-77
2021/09/11 12:34:03;;;;;;;9.45;6.63;;;30.30;52.50;;;;;;5044670;28;20021;-77
2021/09/11 12:36:36;;;;;;;9.43;6.70;;;30.20;52.70;;;;;;5044425;28;20025;-77
2021/09/11 12:39:14;;;;;;;10.48;6.38;;;30.10;52.40;;;;;;5028145;28;20025;-77
2021/09/11 12:41:42;;;;;;;9.02;7.30;;;30.20;53.30;;;;;;5028702;28;20054;-77
2021/09/11 12:44:08;;;;;;;16.65;6.82;;;30.20;51.80;;;;;;5044702;28;20040;-77
2021/09/11 12:46:35;;;;;;;8.15;6.40;;;30.10;52.30;;;;;;5041569;28;20059;-77
2021/09/11 12:49:03;;;;;;;10.98;7.30;;;30.00;53.10;;;;;;5028198;28;20252;-78
2021/09/11 12:51:29;;;;;;;7.95;6.30;;;30.00;51.30;;;;;;5044774;28;20082;-77
2021/09/11 12:53:55;;;;;;;10.73;6.27;;;30.10;51.90;;;;;;5061110;28;20033;-77
2021/09/11 12:56:24;;;;;;;12.67;5.97;;;30.30;52.00;;;;;;5028600;28;20141;-78
2021/09/11 12:58:54;;;;;;;7.85;5.85;;;30.40;51.50;;;;;;5045103;28;20309;-78
2021/09/11 13:01:21;;;;;;;10.20;5.65;;;30.20;51.00;;;;;;5029359;28;20021;-78
2021/09/11 13:03:46;;;;;;;8.60;5.57;;;30.20;49.60;;;;;;5063196;28;20021;-78
2021/09/11 13:06:13;;;;;;;12.53;5.70;;;30.20;50.00;;;;;;5028274;28;20248;-78
2021/09/11 13:08:42;;;;;;;11.07;6.40;;;30.00;48.70;;;;;;5063151;28;20036;-78
2021/09/11 13:11:09;;;;;;;12.25;6.30;;;29.90;49.70;;;;;;5063437;28;20037;-78
2021/09/11 13:13:35;;;;;;;8.07;5.80;;;30.00;50.50;;;;;;5043901;28;20025;-78
2021/09/11 13:16:01;;;;;;;9.38;5.63;;;30.10;50.70;;;;;;5044611;28;20328;-77
2021/09/11 13:18:27;;;;;;;9.17;5.73;;;30.10;49.60;;;;;;5062506;28;20021;-77
2021/09/11 13:20:58;;;;;;;9.77;5.67;;;30.10;48.30;;;;;;5045102;28;20566;-77
2021/09/11 13:23:26;;;;;;;6.32;4.75;;;30.20;49.40;;;;;;5062872;28;20025;-78
2021/09/11 13:25:53;;;;;;;5.88;4.93;;;30.20;47.20;;;;;;5045656;28;20037;-79
2021/09/11 13:28:19;;;;;;;5.70;4.55;;;30.10;47.90;;;;;;5047665;28;20114;-77
2021/09/11 13:30:45;;;;;;;12.07;5.40;;;30.20;47.60;;;;;;5052952;28;20324;-77
2021/09/11 13:33:11;;;;;;;6.13;4.47;;;30.30;48.30;;;;;;5056784;28;20074;-78
2021/09/11 13:35:37;;;;;;;7.50;4.40;;;30.40;47.60;;;;;;5053130;28;20067;-77
2021/09/11 13:38:03;;;;;;;10.00;4.07;;;30.50;45.30;;;;;;5071933;28;20098;-78
2021/09/11 13:40:30;;;;;;;6.43;4.10;;;30.40;44.50;;;;;;5056162;28;20025;-78
2021/09/11 13:42:56;;;;;;;;;;;30.30;43.30;;;;;;5054404;28;20200;-78
2021/09/11 13:45:22;;;;;;;7.00;4.55;;;30.30;45.10;;;;;;5067497;28;20180;-78
2021/09/11 13:47:51;;;;;;;6.60;4.17;;;30.30;44.50;;;;;;5036033;28;20033;-77
2021/09/11 13:50:17;;;;;;;8.05;4.72;;;30.20;43.20;;;;;;5048422;28;20049;-78
2021/09/11 13:52:43;;;;;;;6.73;4.50;;;30.00;44.00;;;;;;5048427;28;20213;-77
2021/09/11 13:55:09;;;;;;;12.63;5.17;;;30.10;44.80;;;;;;5066164;28;20267;-77
2021/09/11 13:57:35;;;;;;;7.95;5.28;;;30.10;45.00;;;;;;5066634;28;20020;-78
2021/09/11 14:00:01;;;;;;;9.00;4.53;;;30.10;45.50;;;;;;5048003;28;20112;-78
2021/09/11 14:02:26;;;;;;;7.67;4.93;;;30.10;45.50;;;;;;5048364;28;20013;-77
2021/09/11 14:04:52;;;;;;;16.63;5.03;;;30.00;45.40;;;;;;5066017;28;20032;-78
2021/09/11 14:07:18;;;;;;;8.50;4.30;;;30.00;44.30;;;;;;5066471;28;20208;-79
2021/09/11 14:09:44;;;;;;;5.77;5.07;;;30.00;45.50;;;;;;5031386;28;20037;-78
2021/09/11 14:12:10;;;;;;;9.00;5.30;;;30.20;44.80;;;;;;5066826;28;20263;-78
2021/09/11 14:14:35;;;;;;;5.10;4.37;;;30.20;46.00;;;;;;5046594;28;20378;-78
2021/09/11 14:17:02;;;;;;;9.67;4.17;;;30.20;44.80;;;;;;5048506;28;20025;-78
2021/09/11 14:19:29;;;;;;;7.07;4.68;;;30.30;44.80;;;;;;5028736;28;20064;-78
2021/09/11 14:21:56;;;;;;;7.10;4.90;;;30.20;44.30;;;;;;5047473;28;20024;-76
2021/09/11 14:24:21;;;;;;;;;;;30.10;43.50;;;;;;5065278;28;20051;-77
2021/09/11 14:26:48;;;;;;;5.40;4.28;;;29.90;43.60;;;;;;5047628;28;19917;-76
2021/09/11 14:29:14;;;;;;;9.57;4.87;;;29.90;42.70;;;;;;5064902;28;20359;-76
2021/09/11 14:31:41;;;;;;;8.23;4.70;;;30.00;43.90;;;;;;5046967;28;20103;-77
2021/09/11 14:34:07;;;;;;;5.90;4.13;;;30.00;43.10;;;;;;5030854;28;20028;-76
2021/09/11 14:36:32;;;;;;;5.97;4.27;;;30.00;43.70;;;;;;5047068;28;20029;-77
2021/09/11 14:38:58;;;;;;;7.03;4.30;;;30.00;42.80;;;;;;5059302;28;20017;-77
2021/09/11 14:41:27;;;;;;;7.37;4.30;;;29.90;42.20;;;;;;5064430;28;20393;-77
2021/09/11 14:43:53;;;;;;;9.10;4.93;;;29.80;43.60;;;;;;5065179;28;20049;-78
2021/09/11 14:46:19;;;;;;;9.10;5.87;;;29.70;45.40;;;;;;5029067;28;20045;-78
2021/09/11 14:48:45;;;;;;;13.43;5.33;;;29.60;44.70;;;;;;5048099;28;20317;-78
2021/09/11 14:51:11;;;;;;;10.43;5.30;;;29.60;45.40;;;;;;5051330;28;20348;-78
2021/09/11 14:53:37;;;;;;;8.90;5.03;;;29.60;46.10;;;;;;5058969;28;20039;-78
2021/09/11 14:56:03;;;;;;;10.10;4.43;;;29.60;46.90;;;;;;5053261;28;20059;-78
2021/09/11 14:58:29;;;;;;;10.90;4.85;;;29.70;46.10;;;;;;5056596;28;20367;-78
2021/09/11 15:00:55;;;;;;;11.63;4.73;;;29.70;45.00;;;;;;5050372;28;20096;-77
2021/09/11 15:03:20;;;;;;;10.93;5.10;;;29.60;44.50;;;;;;5064818;28;20324;-77
2021/09/11 15:05:46;;;;;;;11.13;5.07;;;29.60;45.50;;;;;;5047157;28;20025;-78
2021/09/11 15:08:12;;;;;;;9.30;5.10;;;29.60;44.80;;;;;;5030949;28;20044;-78
2021/09/11 15:10:38;;;;;;;6.87;4.40;;;29.50;44.20;;;;;;5061044;28;20064;-77
2021/09/11 15:13:04;;;;;;;11.23;4.07;;;29.40;44.60;;;;;;5033554;28;20021;-78
2021/09/11 15:15:29;;;;;;;7.77;4.03;;;29.40;44.30;;;;;;5048921;28;20021;-78
2021/09/11 15:17:55;;;;;;;5.87;4.10;;;29.30;43.40;;;;;;5060478;28;20066;-78
2021/09/11 15:20:21;;;;;;;8.50;4.07;;;29.40;43.30;;;;;;5029559;28;20033;-78
2021/09/11 15:22:47;;;;;;;9.50;3.87;;;29.30;43.30;;;;;;5029078;28;20059;-77
2021/09/11 15:25:14;;;;;;;4.88;4.03;;;29.20;43.80;;;;;;5042431;28;20067;-77
2021/09/11 15:27:41;;;;;;;10.43;4.18;;;29.10;42.40;;;;;;5056312;28;20021;-78
2021/09/11 15:30:14;;;;;;;11.55;4.45;;;29.00;43.60;;;;;;5043753;28;20029;-78